sensor_id;sensor_type;location;lat;lon;timestamp;pressure;altitude;pressure_sealevel;temperature;humidity
32452;BME280;45528;52.102;5.242;2023-03-18T00:03:08;100369.0;;;17.75;55.05
32452;BME280;45528;52.102;5.242;2023-03-18T00:04:45;100368.0;;;17.66;55.18
32452;BME280;45528;52.102;5.242;2023-03-18T00:06:21;100370.0;;;17.62;55.31
32452;BME280;45528;52.102;5.242;2023-03-18T00:09:33;100371.0;;;17.52;55.86
32452;BME280;45528;52.102;5.242;2023-03-18T00:11:11;100370.0;;;17.45;56.23
32452;BME280;45528;52.102;5.242;2023-03-18T00:12:49;100374.0;;;17.43;56.0
32452;BME280;45528;52.102;5.242;2023-03-18T00:16:03;100381.0;;;17.32;56.3
32452;BME280;45528;52.102;5.242;2023-03-18T00:17:41;100380.0;;;17.27;56.66
32452;BME280;45528;52.102;5.242;2023-03-18T00:19:17;100387.0;;;17.25;56.66
32452;BME280;45528;52.102;5.242;2023-03-18T00:20:53;100389.0;;;17.18;56.63
32452;BME280;45528;52.102;5.242;2023-03-18T00:24:07;100390.0;;;17.12;56.74
32452;BME280;45528;52.102;5.242;2023-03-18T00:25:46;100389.0;;;17.09;56.96
32452;BME280;45528;52.102;5.242;2023-03-18T00:27:22;100394.0;;;17.04;57.1
32452;BME280;45528;52.102;5.242;2023-03-18T00:30:37;100390.0;;;17.02;57.27
32452;BME280;45528;52.102;5.242;2023-03-18T00:32:14;100395.0;;;17.0;57.3
32452;BME280;45528;52.102;5.242;2023-03-18T00:33:50;100397.0;;;16.96;57.37
32452;BME280;45528;52.102;5.242;2023-03-18T00:37:03;100400.0;;;17.09;57.15
32452;BME280;45528;52.102;5.242;2023-03-18T00:38:40;100399.0;;;17.02;57.31
32452;BME280;45528;52.102;5.242;2023-03-18T00:40:17;100394.0;;;17.03;57.29
32452;BME280;45528;52.102;5.242;2023-03-18T00:41:54;100391.0;;;17.05;57.55
32452;BME280;45528;52.102;5.242;2023-03-18T00:45:09;100393.0;;;17.13;57.19
32452;BME280;45528;52.102;5.242;2023-03-18T00:46:45;100392.0;;;17.09;57.58
32452;BME280;45528;52.102;5.242;2023-03-18T00:48:23;100390.0;;;17.09;57.34
32452;BME280;45528;52.102;5.242;2023-03-18T00:51:36;100385.0;;;17.09;57.46
32452;BME280;45528;52.102;5.242;2023-03-18T00:53:12;100385.0;;;17.09;57.54
32452;BME280;45528;52.102;5.242;2023-03-18T00:54:49;100385.0;;;17.09;57.81
32452;BME280;45528;52.102;5.242;2023-03-18T00:58:04;100383.0;;;17.09;57.56
32452;BME280;45528;52.102;5.242;2023-03-18T00:59:40;100382.0;;;17.07;57.95
32452;BME280;45528;52.102;5.242;2023-03-18T01:01:16;100384.0;;;17.09;57.87
32452;BME280;45528;52.102;5.242;2023-03-18T01:02:53;100387.0;;;17.06;58.06
32452;BME280;45528;52.102;5.242;2023-03-18T01:06:09;100389.0;;;17.03;58.04
32452;BME280;45528;52.102;5.242;2023-03-18T01:07:46;100389.0;;;17.05;57.97
32452;BME280;45528;52.102;5.242;2023-03-18T01:09:22;100384.0;;;17.07;57.67
32452;BME280;45528;52.102;5.242;2023-03-18T01:12:35;100384.0;;;17.09;57.97
32452;BME280;45528;52.102;5.242;2023-03-18T01:14:11;100386.0;;;17.05;57.96
32452;BME280;45528;52.102;5.242;2023-03-18T01:15:47;100377.0;;;17.02;58.19
32452;BME280;45528;52.102;5.242;2023-03-18T01:17:23;100381.0;;;17.06;58.18
32452;BME280;45528;52.102;5.242;2023-03-18T01:20:36;100384.0;;;17.02;58.47
32452;BME280;45528;52.102;5.242;2023-03-18T01:22:13;100383.0;;;17.02;58.57
32452;BME280;45528;52.102;5.242;2023-03-18T01:23:49;100387.0;;;16.98;58.66
32452;BME280;45528;52.102;5.242;2023-03-18T01:27:01;100387.0;;;17.0;58.57
32452;BME280;45528;52.102;5.242;2023-03-18T01:28:38;100389.0;;;16.98;58.52
32452;BME280;45528;52.102;5.242;2023-03-18T01:30:15;100390.0;;;17.02;58.43
32452;BME280;45528;52.102;5.242;2023-03-18T01:33:28;100390.0;;;17.03;58.24
32452;BME280;45528;52.102;5.242;2023-03-18T01:35:04;100389.0;;;17.03;58.54
32452;BME280;45528;52.102;5.242;2023-03-18T01:36:41;100390.0;;;17.02;58.8
32452;BME280;45528;52.102;5.242;2023-03-18T01:38:18;100385.0;;;17.05;58.56
32452;BME280;45528;52.102;5.242;2023-03-18T01:41:30;100388.0;;;17.09;58.53
32452;BME280;45528;52.102;5.242;2023-03-18T01:43:13;100388.0;;;17.04;58.66
32452;BME280;45528;52.102;5.242;2023-03-18T01:45:09;100389.0;;;17.0;59.0
32452;BME280;45528;52.102;5.242;2023-03-18T01:46:51;100390.0;;;16.96;58.9
32452;BME280;45528;52.102;5.242;2023-03-18T01:50:11;100394.0;;;16.95;58.9
32452;BME280;45528;52.102;5.242;2023-03-18T01:51:51;100394.0;;;17.0;58.68
32452;BME280;45528;52.102;5.242;2023-03-18T01:53:37;100395.0;;;17.02;58.73
32452;BME280;45528;52.102;5.242;2023-03-18T01:55:18;100395.0;;;16.96;59.06
32452;BME280;45528;52.102;5.242;2023-03-18T01:58:37;100393.0;;;17.0;59.05
32452;BME280;45528;52.102;5.242;2023-03-18T02:00:20;100391.0;;;16.95;59.15
32452;BME280;45528;52.102;5.242;2023-03-18T02:02:04;100393.0;;;16.96;59.12
32452;BME280;45528;52.102;5.242;2023-03-18T02:03:40;100388.0;;;16.91;59.24
32452;BME280;45528;52.102;5.242;2023-03-18T02:06:59;100389.0;;;16.9;59.33
32452;BME280;45528;52.102;5.242;2023-03-18T02:08:36;100390.0;;;16.89;59.4
32452;BME280;45528;52.102;5.242;2023-03-18T02:10:15;100385.0;;;16.9;59.26
32452;BME280;45528;52.102;5.242;2023-03-18T02:11:54;100392.0;;;16.91;59.45
32452;BME280;45528;52.102;5.242;2023-03-18T02:15:15;100392.0;;;16.91;59.4
32452;BME280;45528;52.102;5.242;2023-03-18T02:16:56;100396.0;;;16.88;59.34
32452;BME280;45528;52.102;5.242;2023-03-18T02:18:42;100396.0;;;16.89;59.38
32452;BME280;45528;52.102;5.242;2023-03-18T02:20:30;100401.0;;;16.91;59.39
32452;BME280;45528;52.102;5.242;2023-03-18T02:22:22;100407.0;;;16.91;59.25
32452;BME280;45528;52.102;5.242;2023-03-18T02:26:00;100405.0;;;16.95;58.94
32452;BME280;45528;52.102;5.242;2023-03-18T02:27:39;100402.0;;;16.91;59.17
32452;BME280;45528;52.102;5.242;2023-03-18T02:29:17;100400.0;;;16.95;59.0
32452;BME280;45528;52.102;5.242;2023-03-18T02:30:58;100398.0;;;17.02;58.81
32452;BME280;45528;52.102;5.242;2023-03-18T02:34:15;100399.0;;;17.05;58.71
32452;BME280;45528;52.102;5.242;2023-03-18T02:35:55;100398.0;;;17.05;58.89
32452;BME280;45528;52.102;5.242;2023-03-18T02:37:38;100401.0;;;17.02;59.13
32452;BME280;45528;52.102;5.242;2023-03-18T02:39:15;100399.0;;;17.04;58.93
32452;BME280;45528;52.102;5.242;2023-03-18T02:42:29;100402.0;;;17.14;58.63
32452;BME280;45528;52.102;5.242;2023-03-18T02:44:07;100402.0;;;17.16;58.54
32452;BME280;45528;52.102;5.242;2023-03-18T02:45:51;100401.0;;;17.11;58.54
32452;BME280;45528;52.102;5.242;2023-03-18T02:47:37;100400.0;;;17.13;58.48
32452;BME280;45528;52.102;5.242;2023-03-18T02:50:54;100399.0;;;17.12;58.6
32452;BME280;45528;52.102;5.242;2023-03-18T02:52:30;100405.0;;;17.12;58.61
32452;BME280;45528;52.102;5.242;2023-03-18T02:54:09;100400.0;;;17.09;58.82
32452;BME280;45528;52.102;5.242;2023-03-18T02:55:46;100405.0;;;17.09;58.8
32452;BME280;45528;52.102;5.242;2023-03-18T02:58:59;100408.0;;;17.04;59.03
32452;BME280;45528;52.102;5.242;2023-03-18T03:00:35;100405.0;;;17.03;59.02
32452;BME280;45528;52.102;5.242;2023-03-18T03:02:12;100400.0;;;17.09;58.79
32452;BME280;45528;52.102;5.242;2023-03-18T03:05:25;100402.0;;;17.09;58.89
32452;BME280;45528;52.102;5.242;2023-03-18T03:07:01;100408.0;;;17.06;58.78
32452;BME280;45528;52.102;5.242;2023-03-18T03:08:38;100414.0;;;17.05;58.98
32452;BME280;45528;52.102;5.242;2023-03-18T03:11:51;100411.0;;;17.03;59.05
32452;BME280;45528;52.102;5.242;2023-03-18T03:13:27;100413.0;;;17.04;59.0
32452;BME280;45528;52.102;5.242;2023-03-18T03:15:04;100414.0;;;17.05;58.98
32452;BME280;45528;52.102;5.242;2023-03-18T03:16:41;100418.0;;;17.11;58.66
32452;BME280;45528;52.102;5.242;2023-03-18T03:19:53;100419.0;;;17.09;58.88
32452;BME280;45528;52.102;5.242;2023-03-18T03:21:30;100421.0;;;17.05;58.95
32452;BME280;45528;52.102;5.242;2023-03-18T03:23:09;100420.0;;;17.03;58.93
32452;BME280;45528;52.102;5.242;2023-03-18T03:26:23;100424.0;;;17.04;59.02
32452;BME280;45528;52.102;5.242;2023-03-18T03:27:59;100431.0;;;17.16;58.5
32452;BME280;45528;52.102;5.242;2023-03-18T03:29:35;100428.0;;;17.18;58.44
32452;BME280;45528;52.102;5.242;2023-03-18T03:32:47;100433.0;;;17.16;58.36
32452;BME280;45528;52.102;5.242;2023-03-18T03:34:24;100428.0;;;17.16;58.3
32452;BME280;45528;52.102;5.242;2023-03-18T03:36:01;100428.0;;;17.11;58.38
32452;BME280;45528;52.102;5.242;2023-03-18T03:37:37;100431.0;;;17.16;58.21
32452;BME280;45528;52.102;5.242;2023-03-18T03:40:49;100431.0;;;17.16;58.06
32452;BME280;45528;52.102;5.242;2023-03-18T03:42:25;100435.0;;;17.13;58.24
32452;BME280;45528;52.102;5.242;2023-03-18T03:44:01;100433.0;;;17.23;57.9
32452;BME280;45528;52.102;5.242;2023-03-18T03:47:13;100436.0;;;17.36;57.54
32452;BME280;45528;52.102;5.242;2023-03-18T03:48:50;100437.0;;;17.21;57.76
32452;BME280;45528;52.102;5.242;2023-03-18T03:50:26;100437.0;;;17.22;57.86
32452;BME280;45528;52.102;5.242;2023-03-18T03:53:39;100438.0;;;17.28;57.69
32452;BME280;45528;52.102;5.242;2023-03-18T03:55:18;100440.0;;;17.22;57.8
32452;BME280;45528;52.102;5.242;2023-03-18T03:56:55;100441.0;;;17.23;57.68
32452;BME280;45528;52.102;5.242;2023-03-18T03:58:32;100442.0;;;17.18;57.71
32452;BME280;45528;52.102;5.242;2023-03-18T04:01:49;100440.0;;;17.18;57.78
32452;BME280;45528;52.102;5.242;2023-03-18T04:03:25;100442.0;;;17.14;58.04
32452;BME280;45528;52.102;5.242;2023-03-18T04:05:02;100443.0;;;17.18;58.0
32452;BME280;45528;52.102;5.242;2023-03-18T04:08:14;100442.0;;;17.18;58.08
32452;BME280;45528;52.102;5.242;2023-03-18T04:09:51;100442.0;;;17.18;58.07
32452;BME280;45528;52.102;5.242;2023-03-18T04:11:28;100444.0;;;17.21;57.98
32452;BME280;45528;52.102;5.242;2023-03-18T04:14:40;100446.0;;;17.16;58.16
32452;BME280;45528;52.102;5.242;2023-03-18T04:16:16;100442.0;;;17.09;58.61
32452;BME280;45528;52.102;5.242;2023-03-18T04:17:52;100445.0;;;17.14;58.44
32452;BME280;45528;52.102;5.242;2023-03-18T04:19:29;100444.0;;;17.14;58.54
32452;BME280;45528;52.102;5.242;2023-03-18T04:22:42;100443.0;;;17.18;58.6
32452;BME280;45528;52.102;5.242;2023-03-18T04:24:19;100443.0;;;17.09;58.87
32452;BME280;45528;52.102;5.242;2023-03-18T04:25:56;100448.0;;;17.13;58.86
32452;BME280;45528;52.102;5.242;2023-03-18T04:29:09;100449.0;;;17.11;58.94
32452;BME280;45528;52.102;5.242;2023-03-18T04:30:46;100445.0;;;17.12;58.87
32452;BME280;45528;52.102;5.242;2023-03-18T04:32:22;100451.0;;;17.16;58.77
32452;BME280;45528;52.102;5.242;2023-03-18T04:35:35;100452.0;;;17.18;58.83
32452;BME280;45528;52.102;5.242;2023-03-18T04:37:11;100445.0;;;17.12;59.03
32452;BME280;45528;52.102;5.242;2023-03-18T04:38:48;100445.0;;;17.14;59.11
32452;BME280;45528;52.102;5.242;2023-03-18T04:40:24;100443.0;;;17.18;59.33
32452;BME280;45528;52.102;5.242;2023-03-18T04:43:36;100447.0;;;17.16;59.81
32452;BME280;45528;52.102;5.242;2023-03-18T04:45:13;100448.0;;;17.11;60.18
32452;BME280;45528;52.102;5.242;2023-03-18T04:46:50;100451.0;;;17.02;60.76
32452;BME280;45528;52.102;5.242;2023-03-18T04:50:04;100450.0;;;17.04;60.75
32452;BME280;45528;52.102;5.242;2023-03-18T04:51:41;100449.0;;;17.02;60.88
32452;BME280;45528;52.102;5.242;2023-03-18T04:53:17;100451.0;;;16.97;61.2
32452;BME280;45528;52.102;5.242;2023-03-18T04:56:29;100449.0;;;17.02;60.99
32452;BME280;45528;52.102;5.242;2023-03-18T04:58:05;100450.0;;;16.93;61.37
32452;BME280;45528;52.102;5.242;2023-03-18T04:59:41;100456.0;;;16.95;61.46
32452;BME280;45528;52.102;5.242;2023-03-18T05:01:18;100458.0;;;16.96;61.48
32452;BME280;45528;52.102;5.242;2023-03-18T05:04:32;100464.0;;;16.9;61.52
32452;BME280;45528;52.102;5.242;2023-03-18T05:06:18;100467.0;;;17.06;61.25
32452;BME280;45528;52.102;5.242;2023-03-18T05:07:55;100466.0;;;16.97;61.49
32452;BME280;45528;52.102;5.242;2023-03-18T05:11:07;100469.0;;;16.97;61.59
32452;BME280;45528;52.102;5.242;2023-03-18T05:12:44;100468.0;;;16.93;61.65
32452;BME280;45528;52.102;5.242;2023-03-18T05:14:21;100474.0;;;17.02;61.56
32452;BME280;45528;52.102;5.242;2023-03-18T05:15:57;100482.0;;;17.05;61.36
32452;BME280;45528;52.102;5.242;2023-03-18T05:19:09;100486.0;;;17.05;61.39
32452;BME280;45528;52.102;5.242;2023-03-18T05:20:45;100489.0;;;17.09;61.4
32452;BME280;45528;52.102;5.242;2023-03-18T05:22:21;100488.0;;;17.09;61.4
32452;BME280;45528;52.102;5.242;2023-03-18T05:25:34;100494.0;;;17.09;61.47
32452;BME280;45528;52.102;5.242;2023-03-18T05:27:11;100496.0;;;17.11;61.23
32452;BME280;45528;52.102;5.242;2023-03-18T05:28:48;100497.0;;;17.13;61.24
32452;BME280;45528;52.102;5.242;2023-03-18T05:32:01;100503.0;;;17.18;61.11
32452;BME280;45528;52.102;5.242;2023-03-18T05:33:37;100498.0;;;17.11;61.39
32452;BME280;45528;52.102;5.242;2023-03-18T05:35:13;100498.0;;;17.21;61.15
32452;BME280;45528;52.102;5.242;2023-03-18T05:36:49;100495.0;;;17.09;61.26
32452;BME280;45528;52.102;5.242;2023-03-18T05:40:02;100495.0;;;17.23;61.04
32452;BME280;45528;52.102;5.242;2023-03-18T05:41:38;100498.0;;;17.25;60.9
32452;BME280;45528;52.102;5.242;2023-03-18T05:43:15;100498.0;;;17.2;61.17
32452;BME280;45528;52.102;5.242;2023-03-18T05:46:27;100497.0;;;17.2;61.37
32452;BME280;45528;52.102;5.242;2023-03-18T05:48:04;100499.0;;;17.11;61.64
32452;BME280;45528;52.102;5.242;2023-03-18T05:49:41;100496.0;;;17.06;62.12
32452;BME280;45528;52.102;5.242;2023-03-18T05:52:53;100496.0;;;17.05;62.17
32452;BME280;45528;52.102;5.242;2023-03-18T05:54:29;100500.0;;;16.96;62.55
32452;BME280;45528;52.102;5.242;2023-03-18T05:56:06;100501.0;;;17.0;62.61
32452;BME280;45528;52.102;5.242;2023-03-18T05:57:43;100497.0;;;17.07;62.2
32452;BME280;45528;52.102;5.242;2023-03-18T06:00:58;100505.0;;;17.14;62.01
32452;BME280;45528;52.102;5.242;2023-03-18T06:02:34;100510.0;;;17.11;62.2
32452;BME280;45528;52.102;5.242;2023-03-18T06:04:10;100513.0;;;17.07;62.5
32452;BME280;45528;52.102;5.242;2023-03-18T06:07:22;100518.0;;;17.09;62.31
32452;BME280;45528;52.102;5.242;2023-03-18T06:08:58;100517.0;;;17.05;62.51
32452;BME280;45528;52.102;5.242;2023-03-18T06:10:35;100516.0;;;17.11;62.45
32452;BME280;45528;52.102;5.242;2023-03-18T06:13:47;100513.0;;;17.04;62.71
32452;BME280;45528;52.102;5.242;2023-03-18T06:15:23;100513.0;;;17.0;62.76
32452;BME280;45528;52.102;5.242;2023-03-18T06:16:59;100510.0;;;17.04;62.75
32452;BME280;45528;52.102;5.242;2023-03-18T06:20:12;100508.0;;;17.11;62.45
32452;BME280;45528;52.102;5.242;2023-03-18T06:21:49;100517.0;;;17.11;62.5
32452;BME280;45528;52.102;5.242;2023-03-18T06:23:26;100520.0;;;17.14;62.47
32452;BME280;45528;52.102;5.242;2023-03-18T06:25:04;100527.0;;;17.14;62.42
32452;BME280;45528;52.102;5.242;2023-03-18T06:28:17;100528.0;;;17.2;62.32
32452;BME280;45528;52.102;5.242;2023-03-18T06:29:54;100534.0;;;17.21;62.35
32452;BME280;45528;52.102;5.242;2023-03-18T06:31:30;100541.0;;;17.23;62.17
32452;BME280;45528;52.102;5.242;2023-03-18T06:34:42;100541.0;;;17.23;62.2
32452;BME280;45528;52.102;5.242;2023-03-18T06:36:19;100544.0;;;17.21;62.41
32452;BME280;45528;52.102;5.242;2023-03-18T06:37:57;100546.0;;;17.18;62.36
32452;BME280;45528;52.102;5.242;2023-03-18T06:39:33;100556.0;;;17.2;62.32
32452;BME280;45528;52.102;5.242;2023-03-18T06:42:46;100555.0;;;17.2;62.42
32452;BME280;45528;52.102;5.242;2023-03-18T06:44:22;100552.0;;;17.23;62.41
32452;BME280;45528;52.102;5.242;2023-03-18T06:45:59;100546.0;;;17.31;62.27
32452;BME280;45528;52.102;5.242;2023-03-18T06:49:13;100545.0;;;17.32;62.33
32452;BME280;45528;52.102;5.242;2023-03-18T06:50:49;100546.0;;;17.32;62.42
32452;BME280;45528;52.102;5.242;2023-03-18T06:52:26;100547.0;;;17.27;62.7
32452;BME280;45528;52.102;5.242;2023-03-18T06:55:38;100553.0;;;17.29;62.63
32452;BME280;45528;52.102;5.242;2023-03-18T06:57:14;100557.0;;;17.34;62.31
32452;BME280;45528;52.102;5.242;2023-03-18T06:58:50;100559.0;;;17.31;62.52
32452;BME280;45528;52.102;5.242;2023-03-18T07:02:03;100562.0;;;17.36;62.39
32452;BME280;45528;52.102;5.242;2023-03-18T07:03:39;100559.0;;;17.41;62.26
32452;BME280;45528;52.102;5.242;2023-03-18T07:05:16;100564.0;;;17.41;62.29
32452;BME280;45528;52.102;5.242;2023-03-18T07:06:53;100567.0;;;17.36;62.26
32452;BME280;45528;52.102;5.242;2023-03-18T07:10:07;100574.0;;;17.28;62.52
32452;BME280;45528;52.102;5.242;2023-03-18T07:11:53;100575.0;;;17.38;62.4
32452;BME280;45528;52.102;5.242;2023-03-18T07:13:29;100581.0;;;17.39;62.47
32452;BME280;45528;52.102;5.242;2023-03-18T07:16:42;100583.0;;;17.48;62.42
32452;BME280;45528;52.102;5.242;2023-03-18T07:18:18;100583.0;;;17.48;62.45
32452;BME280;45528;52.102;5.242;2023-03-18T07:19:55;100583.0;;;17.47;62.92
32452;BME280;45528;52.102;5.242;2023-03-18T07:21:31;100578.0;;;17.56;62.66
32452;BME280;45528;52.102;5.242;2023-03-18T07:24:44;100583.0;;;17.7;62.29
32452;BME280;45528;52.102;5.242;2023-03-18T07:26:20;100580.0;;;17.75;61.86
32452;BME280;45528;52.102;5.242;2023-03-18T07:27:58;100581.0;;;17.98;61.21
32452;BME280;45528;52.102;5.242;2023-03-18T07:35:59;100592.0;;;17.84;61.38
32452;BME280;45528;52.102;5.242;2023-03-18T07:37:35;100594.0;;;17.77;61.47
32452;BME280;45528;52.102;5.242;2023-03-18T07:39:12;100598.0;;;18.02;60.85
32452;BME280;45528;52.102;5.242;2023-03-18T07:40:49;100605.0;;;18.21;60.27
32452;BME280;45528;52.102;5.242;2023-03-18T07:44:02;100602.0;;;18.2;60.32
32452;BME280;45528;52.102;5.242;2023-03-18T07:45:38;100601.0;;;18.0;60.77
32452;BME280;45528;52.102;5.242;2023-03-18T07:47:15;100609.0;;;18.11;60.67
32452;BME280;45528;52.102;5.242;2023-03-18T07:50:27;100608.0;;;18.25;60.57
32452;BME280;45528;52.102;5.242;2023-03-18T07:52:03;100605.0;;;18.25;60.34
32452;BME280;45528;52.102;5.242;2023-03-18T07:53:39;100607.0;;;18.2;60.63
32452;BME280;45528;52.102;5.242;2023-03-18T07:56:51;100608.0;;;18.32;60.28
32452;BME280;45528;52.102;5.242;2023-03-18T07:58:27;100607.0;;;18.5;59.97
32452;BME280;45528;52.102;5.242;2023-03-18T08:00:04;100616.0;;;18.27;60.21
32452;BME280;45528;52.102;5.242;2023-03-18T08:03:18;100615.0;;;18.45;59.71
32452;BME280;45528;52.102;5.242;2023-03-18T08:04:54;100612.0;;;18.48;59.79
32452;BME280;45528;52.102;5.242;2023-03-18T08:06:30;100615.0;;;18.41;60.05
32452;BME280;45528;52.102;5.242;2023-03-18T08:08:06;100619.0;;;18.45;59.7
32452;BME280;45528;52.102;5.242;2023-03-18T08:11:18;100617.0;;;18.54;59.72
32452;BME280;45528;52.102;5.242;2023-03-18T08:12:55;100615.0;;;18.7;59.44
32452;BME280;45528;52.102;5.242;2023-03-18T08:14:32;100612.0;;;18.66;58.93
32452;BME280;45528;52.102;5.242;2023-03-18T08:17:44;100614.0;;;18.86;58.37
32452;BME280;45528;52.102;5.242;2023-03-18T08:19:20;100614.0;;;18.86;58.37
32452;BME280;45528;52.102;5.242;2023-03-18T08:20:56;100608.0;;;18.91;58.33
32452;BME280;45528;52.102;5.242;2023-03-18T08:24:09;100613.0;;;18.96;58.16
32452;BME280;45528;52.102;5.242;2023-03-18T08:25:46;100610.0;;;18.98;58.39
32452;BME280;45528;52.102;5.242;2023-03-18T08:27:24;100613.0;;;18.93;58.61
32452;BME280;45528;52.102;5.242;2023-03-18T08:29:00;100612.0;;;19.2;57.97
32452;BME280;45528;52.102;5.242;2023-03-18T08:32:14;100612.0;;;19.21;57.52
32452;BME280;45528;52.102;5.242;2023-03-18T08:33:51;100605.0;;;19.07;57.67
32452;BME280;45528;52.102;5.242;2023-03-18T08:35:27;100603.0;;;19.25;57.23
32452;BME280;45528;52.102;5.242;2023-03-18T08:38:40;100600.0;;;19.2;57.39
32452;BME280;45528;52.102;5.242;2023-03-18T08:40:17;100597.0;;;19.11;57.34
32452;BME280;45528;52.102;5.242;2023-03-18T08:41:54;100597.0;;;19.25;56.89
32452;BME280;45528;52.102;5.242;2023-03-18T08:45:07;100600.0;;;19.29;56.64
32452;BME280;45528;52.102;5.242;2023-03-18T08:46:43;100599.0;;;19.25;56.82
32452;BME280;45528;52.102;5.242;2023-03-18T08:48:20;100603.0;;;19.18;56.87
32452;BME280;45528;52.102;5.242;2023-03-18T08:49:57;100606.0;;;19.14;56.99
32452;BME280;45528;52.102;5.242;2023-03-18T08:53:09;100601.0;;;19.05;57.29
32452;BME280;45528;52.102;5.242;2023-03-18T08:54:46;100605.0;;;19.06;57.25
32452;BME280;45528;52.102;5.242;2023-03-18T08:56:22;100612.0;;;19.28;57.0
32452;BME280;45528;52.102;5.242;2023-03-18T08:59:34;100612.0;;;19.38;56.44
32452;BME280;45528;52.102;5.242;2023-03-18T09:01:10;100615.0;;;19.5;56.05
32452;BME280;45528;52.102;5.242;2023-03-18T09:02:47;100615.0;;;19.75;55.82
32452;BME280;45528;52.102;5.242;2023-03-18T09:06:01;100619.0;;;19.93;55.64
32452;BME280;45528;52.102;5.242;2023-03-18T09:07:37;100623.0;;;20.04;55.54
32452;BME280;45528;52.102;5.242;2023-03-18T09:09:13;100623.0;;;20.11;55.6
32452;BME280;45528;52.102;5.242;2023-03-18T09:10:50;100620.0;;;20.25;55.09
32452;BME280;45528;52.102;5.242;2023-03-18T09:14:03;100626.0;;;20.38;54.52
32452;BME280;45528;52.102;5.242;2023-03-18T09:15:39;100630.0;;;20.34;53.95
32452;BME280;45528;52.102;5.242;2023-03-18T09:17:16;100630.0;;;20.34;54.2
32452;BME280;45528;52.102;5.242;2023-03-18T09:20:29;100630.0;;;20.27;54.37
32452;BME280;45528;52.102;5.242;2023-03-18T09:22:05;100631.0;;;20.22;54.64
32452;BME280;45528;52.102;5.242;2023-03-18T09:23:42;100638.0;;;20.16;55.06
32452;BME280;45528;52.102;5.242;2023-03-18T09:26:55;100642.0;;;20.02;55.67
32452;BME280;45528;52.102;5.242;2023-03-18T09:28:32;100645.0;;;19.91;55.82
32452;BME280;45528;52.102;5.242;2023-03-18T09:30:09;100644.0;;;19.82;56.18
32452;BME280;45528;52.102;5.242;2023-03-18T09:31:45;100641.0;;;19.87;55.67
32452;BME280;45528;52.102;5.242;2023-03-18T09:34:59;100642.0;;;20.32;54.6
32452;BME280;45528;52.102;5.242;2023-03-18T09:36:35;100646.0;;;20.51;54.63
32452;BME280;45528;52.102;5.242;2023-03-18T09:38:14;100646.0;;;20.66;54.05
32452;BME280;45528;52.102;5.242;2023-03-18T09:41:33;100660.0;;;20.79;53.8
32452;BME280;45528;52.102;5.242;2023-03-18T09:43:28;100660.0;;;20.59;53.84
32452;BME280;45528;52.102;5.242;2023-03-18T09:45:23;100661.0;;;20.36;54.08
32452;BME280;45528;52.102;5.242;2023-03-18T09:47:10;100666.0;;;20.46;54.26
32452;BME280;45528;52.102;5.242;2023-03-18T09:49:05;100666.0;;;20.65;53.41
32452;BME280;45528;52.102;5.242;2023-03-18T09:50:55;100667.0;;;20.56;53.24
32452;BME280;45528;52.102;5.242;2023-03-18T09:52:45;100667.0;;;20.41;53.66
32452;BME280;45528;52.102;5.242;2023-03-18T09:56:13;100668.0;;;20.36;54.13
32452;BME280;45528;52.102;5.242;2023-03-18T09:57:53;100662.0;;;20.48;54.18
32452;BME280;45528;52.102;5.242;2023-03-18T09:59:37;100663.0;;;20.7;53.51
32452;BME280;45528;52.102;5.242;2023-03-18T10:01:17;100661.0;;;20.52;53.88
32452;BME280;45528;52.102;5.242;2023-03-18T10:04:40;100661.0;;;20.96;52.94
32452;BME280;45528;52.102;5.242;2023-03-18T10:06:20;100666.0;;;20.84;52.25
32452;BME280;45528;52.102;5.242;2023-03-18T10:08:02;100660.0;;;21.31;52.17
32452;BME280;45528;52.102;5.242;2023-03-18T10:09:44;100664.0;;;21.25;52.22
32452;BME280;45528;52.102;5.242;2023-03-18T10:13:08;100664.0;;;21.37;51.48
32452;BME280;45528;52.102;5.242;2023-03-18T10:15:00;100667.0;;;21.13;51.78
32452;BME280;45528;52.102;5.242;2023-03-18T10:16:48;100666.0;;;21.05;51.65
32452;BME280;45528;52.102;5.242;2023-03-18T10:18:38;100668.0;;;21.02;51.84
32452;BME280;45528;52.102;5.242;2023-03-18T10:20:19;100668.0;;;21.13;51.69
32452;BME280;45528;52.102;5.242;2023-03-18T10:22:15;100662.0;;;21.2;51.54
32452;BME280;45528;52.102;5.242;2023-03-18T10:25:51;100658.0;;;21.29;51.35
32452;BME280;45528;52.102;5.242;2023-03-18T10:27:39;100652.0;;;21.62;50.41
32452;BME280;45528;52.102;5.242;2023-03-18T10:29:30;100652.0;;;21.63;50.0
32452;BME280;45528;52.102;5.242;2023-03-18T10:31:17;100647.0;;;21.47;49.85
32452;BME280;45528;52.102;5.242;2023-03-18T10:33:07;100653.0;;;21.69;50.23
32452;BME280;45528;52.102;5.242;2023-03-18T10:34:57;100655.0;;;21.69;49.37
32452;BME280;45528;52.102;5.242;2023-03-18T10:36:54;100655.0;;;21.91;49.2
32452;BME280;45528;52.102;5.242;2023-03-18T10:40:16;100656.0;;;22.03;48.82
32452;BME280;45528;52.102;5.242;2023-03-18T10:41:57;100657.0;;;21.92;48.49
32452;BME280;45528;52.102;5.242;2023-03-18T10:43:35;100664.0;;;21.85;48.59
32452;BME280;45528;52.102;5.242;2023-03-18T10:45:20;100660.0;;;21.5;49.56
32452;BME280;45528;52.102;5.242;2023-03-18T10:48:39;100662.0;;;21.41;50.01
32452;BME280;45528;52.102;5.242;2023-03-18T10:50:20;100662.0;;;21.35;50.18
32452;BME280;45528;52.102;5.242;2023-03-18T10:52:02;100664.0;;;21.48;49.78
32452;BME280;45528;52.102;5.242;2023-03-18T10:53:44;100662.0;;;21.42;50.09
32452;BME280;45528;52.102;5.242;2023-03-18T10:55:29;100662.0;;;21.53;49.74
32452;BME280;45528;52.102;5.242;2023-03-18T10:58:49;100663.0;;;21.85;49.4
32452;BME280;45528;52.102;5.242;2023-03-18T11:00:28;100662.0;;;22.2;49.41
32452;BME280;45528;52.102;5.242;2023-03-18T11:02:15;100664.0;;;22.28;48.56
32452;BME280;45528;52.102;5.242;2023-03-18T11:03:58;100660.0;;;22.22;47.99
32452;BME280;45528;52.102;5.242;2023-03-18T11:07:15;100663.0;;;22.3;47.89
32452;BME280;45528;52.102;5.242;2023-03-18T11:09:01;100664.0;;;22.21;48.25
32452;BME280;45528;52.102;5.242;2023-03-18T11:10:43;100660.0;;;22.47;47.23
32452;BME280;45528;52.102;5.242;2023-03-18T11:12:23;100667.0;;;22.55;47.11